CO70 weather

CLOSED Uhrich Airport
Greeley, Colorado, United States

Public forecast

Using degrees Fahrenheit for public forecast. Weather courtesy of forecast.io.

Closest aviation weather report (METAR) to Uhrich Airport

Closest report is Greeley–Weld County Airport, 1.5 nm (2.8 km) SSE. Retrieved 2020/04/05 03:56 UTC (24 minutes ago):

KGXY 050356Z AUTO 16013KT 10SM CLR 09/M03 A2982 RMK AO2 SLP106 T00891028

Closest aviation forecast (TAF) to Uhrich Airport

Closest forecast is Denver International Airport, 36.0 nm (66.6 km) S. Retrieved 2020-04-05 00:36 UTC (4 hours ago):

TAF KDEN 042335Z 0500/0606 15010KT P6SM SCT090 BKN150 FM050500 21009KT P6SM FEW110 SCT220 FM051300 VRB05KT P6SM FEW220 FM052000 02006KT P6SM FEW090 SCT140 FM060200 13006KT P6SM FEW120